Time;durP1;ratioP1;P1;durP2;ratioP2;P2;SDS_P1;SDS_P2;PMS_P1;PMS_P2;Temp;Humidity;BMP_temperature;BMP_pressure;BME280_temperature;BME280_humidity;BME280_pressure;Samples;Min_cycle;Max_cycle;Signal;HPM_P1;HPM_P2
2022/03/22 00:00:09;;;;;;;14.80;8.48;;;;;;;-0.48;100.00;94268.88;2097461;28;20036;-82
2022/03/22 00:01:10;;;;;;;15.95;9.13;;;;;;;-0.27;100.00;94269.66;2085611;28;20059;-82
2022/03/22 00:02:11;;;;;;;16.58;8.90;;;;;;;-0.40;100.00;94262.00;2083727;28;20100;-81
2022/03/22 00:03:14;;;;;;;17.25;8.82;;;;;;;-0.54;100.00;94270.88;2081605;28;20097;-82
2022/03/22 00:04:15;;;;;;;11.75;8.10;;;;;;;-0.65;100.00;94266.31;2081799;28;20017;-82
2022/03/22 00:05:16;;;;;;;17.85;9.68;;;;;;;-0.62;100.00;94266.44;2089659;28;20039;-82
2022/03/22 00:06:18;;;;;;;12.93;7.82;;;;;;;-0.48;100.00;94268.06;2094058;28;20401;-82
2022/03/22 00:07:19;;;;;;;13.45;8.50;;;;;;;-0.68;100.00;94262.47;2087573;28;20735;-82
2022/03/22 00:08:20;;;;;;;17.17;9.55;;;;;;;-0.81;100.00;94264.22;2089942;28;20025;-82
2022/03/22 00:09:21;;;;;;;18.38;8.23;;;;;;;-0.77;100.00;94257.25;2103032;28;20803;-81
2022/03/22 00:10:22;;;;;;;11.82;8.52;;;;;;;-0.62;100.00;94266.44;2092501;28;20060;-82
2022/03/22 00:11:23;;;;;;;14.30;8.43;;;;;;;-0.77;100.00;94272.22;2097666;28;20024;-83
2022/03/22 00:12:24;;;;;;;13.52;8.48;;;;;;;-0.95;100.00;94268.13;2089038;28;20110;-81
2022/03/22 00:13:25;;;;;;;18.20;8.88;;;;;;;-0.98;100.00;94268.75;2097715;28;20524;-82
2022/03/22 00:14:26;;;;;;;16.48;8.73;;;;;;;-0.93;100.00;94265.94;2081671;28;20026;-81
2022/03/22 00:15:27;;;;;;;13.25;8.88;;;;;;;-0.69;100.00;94271.44;2085731;28;20120;-81
2022/03/22 00:16:29;;;;;;;20.67;9.27;;;;;;;-0.80;100.00;94264.97;2102070;28;20386;-82
2022/03/22 00:17:30;;;;;;;13.63;8.50;;;;;;;-0.86;100.00;94268.88;2091111;28;20393;-82
2022/03/22 00:18:36;;;;;;;15.15;8.57;;;;;;;-1.05;100.00;94267.41;2081315;28;20431;-82
2022/03/22 00:19:37;;;;;;;13.98;8.18;;;;;;;-0.97;100.00;94263.19;2074769;28;20108;-83
2022/03/22 00:20:38;;;;;;;17.70;9.70;;;;;;;-1.04;100.00;94262.91;2082946;28;20082;-82
2022/03/22 00:21:39;;;;;;;18.33;8.75;;;;;;;-1.12;100.00;94264.47;2081502;28;20076;-82
2022/03/22 00:22:40;;;;;;;14.05;8.57;;;;;;;-1.00;100.00;94270.94;2091760;28;20100;-83
2022/03/22 00:23:41;;;;;;;18.33;8.73;;;;;;;-1.05;100.00;94258.75;2089388;28;20028;-83
2022/03/22 00:24:42;;;;;;;13.32;8.98;;;;;;;-1.10;100.00;94258.91;2081070;28;20815;-81
2022/03/22 00:25:43;;;;;;;12.68;9.00;;;;;;;-1.04;100.00;94261.06;2089405;28;20025;-82
2022/03/22 00:26:44;;;;;;;16.50;8.38;;;;;;;-1.06;100.00;94259.81;2089496;28;20104;-81
2022/03/22 00:27:55;;;;;;;13.13;9.07;;;;;;;-1.11;100.00;94263.38;2089682;28;20021;-82
2022/03/22 00:28:56;;;;;;;17.85;8.77;;;;;;;-0.88;100.00;94258.69;2084128;28;20071;-82
2022/03/22 00:29:58;;;;;;;13.68;8.10;;;;;;;-1.18;100.00;94257.09;2081467;28;20049;-82
2022/03/22 00:30:59;;;;;;;17.63;8.98;;;;;;;-1.20;100.00;94262.63;2081495;28;20093;-82
2022/03/22 00:32:00;;;;;;;16.05;8.95;;;;;;;-1.03;100.00;94259.97;2081507;28;20063;-81
2022/03/22 00:33:05;;;;;;;13.75;8.73;;;;;;;-0.86;100.00;94259.13;2081395;28;20076;-82
2022/03/22 00:34:06;;;;;;;11.75;8.73;;;;;;;-1.10;100.00;94249.19;2082268;28;20072;-82
2022/03/22 00:35:07;;;;;;;14.35;9.15;;;;;;;-1.23;100.00;94259.88;2089664;28;20060;-82
2022/03/22 00:36:10;;;;;;;17.50;9.48;;;;;;;-1.17;100.00;94256.78;2088951;28;20029;-82
2022/03/22 00:37:15;;;;;;;16.48;8.27;;;;;;;-1.27;100.00;94257.13;2080441;28;20120;-83
2022/03/22 00:38:20;;;;;;;13.55;8.75;;;;;;;-1.38;100.00;94254.03;2082329;28;21066;-82
2022/03/22 00:39:30;;;;;;;14.77;9.52;;;;;;;-1.27;100.00;94254.50;2089899;28;20032;-81
2022/03/22 00:40:32;;;;;;;14.13;8.93;;;;;;;-1.00;100.00;94248.09;2085410;28;20056;-82
2022/03/22 00:41:33;;;;;;;14.43;9.45;;;;;;;-0.90;100.00;94252.22;2089525;28;20048;-82
2022/03/22 00:42:34;;;;;;;20.05;9.30;;;;;;;-1.11;100.00;94250.25;2092214;28;20489;-82
2022/03/22 00:43:35;;;;;;;16.63;9.30;;;;;;;-1.17;100.00;94242.91;2104123;28;20091;-82
2022/03/22 00:44:38;;;;;;;13.75;8.45;;;;;;;-1.19;100.00;94247.66;2098711;28;20103;-82
2022/03/22 00:45:39;;;;;;;17.15;9.25;;;;;;;-1.21;100.00;94245.38;2106320;28;20062;-82
2022/03/22 00:46:40;;;;;;;17.73;9.70;;;;;;;-1.22;100.00;94248.31;2097714;28;20020;-82
2022/03/22 00:47:45;;;;;;;16.65;9.30;;;;;;;-1.15;100.00;94245.97;2086917;28;20082;-81
2022/03/22 00:48:47;;;;;;;15.95;8.85;;;;;;;-1.22;100.00;94241.22;2104394;28;20027;-81
2022/03/22 00:49:48;;;;;;;12.35;8.65;;;;;;;-1.14;100.00;94245.66;2106250;28;20507;-81
2022/03/22 00:50:51;;;;;;;12.63;8.80;;;;;;;-1.17;100.00;94242.91;2091040;28;20036;-80
2022/03/22 00:51:51;;;;;;;22.38;9.73;;;;;;;-1.28;100.00;94243.22;2088651;28;20029;-81
2022/03/22 00:52:53;;;;;;;14.88;9.05;;;;;;;-1.40;100.00;94240.50;2089193;28;20126;-81
2022/03/22 00:53:54;;;;;;;12.35;8.60;;;;;;;-1.37;100.00;94236.44;2089621;28;20075;-82
2022/03/22 00:54:55;;;;;;;19.55;9.70;;;;;;;-1.32;100.00;94242.31;2097617;28;20020;-81
2022/03/22 00:55:56;;;;;;;12.63;9.25;;;;;;;-1.46;100.00;94243.56;2089475;28;20051;-81
2022/03/22 00:56:57;;;;;;;16.02;9.05;;;;;;;-1.52;100.00;94245.59;2081269;28;20029;-81
2022/03/22 00:57:58;;;;;;;15.00;8.82;;;;;;;-1.48;100.00;94240.50;2081343;28;20021;-81
2022/03/22 01:00:30;;;;;;;16.30;9.50;;;;;;;-1.34;100.00;94235.84;2088170;28;20024;-81
2022/03/22 01:01:31;;;;;;;15.10;9.02;;;;;;;-1.31;100.00;94240.47;2090742;28;20024;-81
2022/03/22 01:02:37;;;;;;;14.93;9.65;;;;;;;-1.43;100.00;94242.97;2081019;28;20055;-81
2022/03/22 01:03:38;;;;;;;13.30;9.20;;;;;;;-1.43;100.00;94241.09;2077941;28;20942;-81
2022/03/22 01:04:39;;;;;;;15.25;9.65;;;;;;;-1.35;100.00;94237.69;2097444;28;20075;-81
2022/03/22 01:05:40;;;;;;;16.05;9.20;;;;;;;-1.39;100.00;94238.63;2106059;28;20377;-81
2022/03/22 01:06:41;;;;;;;19.35;9.23;;;;;;;-1.48;100.00;94237.88;2104005;28;20168;-81
2022/03/22 01:07:43;;;;;;;18.35;9.30;;;;;;;-1.47;100.00;94244.66;2093484;28;20078;-82
2022/03/22 01:08:46;;;;;;;17.67;8.95;;;;;;;-1.56;100.00;94242.06;2097458;28;20061;-81
2022/03/22 01:09:47;;;;;;;15.55;9.02;;;;;;;-1.36;100.00;94238.00;2089285;28;20028;-81
2022/03/22 01:10:52;;;;;;;16.58;9.63;;;;;;;-1.48;100.00;94241.28;2089349;28;20036;-82
2022/03/22 01:11:53;;;;;;;14.20;9.45;;;;;;;-1.46;100.00;94233.84;2089698;28;20045;-80
2022/03/22 01:12:54;;;;;;;17.95;10.00;;;;;;;-1.48;100.00;94251.75;2097522;28;20020;-81
2022/03/22 01:13:56;;;;;;;15.73;9.23;;;;;;;-1.38;100.00;94240.16;2089247;28;20024;-82
2022/03/22 01:14:57;;;;;;;20.10;9.82;;;;;;;-1.47;100.00;94240.19;2085514;28;20025;-81
2022/03/22 01:15:58;;;;;;;14.75;9.00;;;;;;;-1.57;100.00;94243.91;2091167;28;20029;-82
2022/03/22 01:16:59;;;;;;;15.40;10.07;;;;;;;-1.67;100.00;94240.81;2086534;28;20095;-82
2022/03/22 01:18:06;;;;;;;17.70;10.20;;;;;;;-1.78;100.00;94243.00;2080819;28;20017;-82
2022/03/22 01:19:07;;;;;;;17.38;9.43;;;;;;;-1.77;100.00;94237.44;2089465;28;20048;-82
2022/03/22 01:20:09;;;;;;;12.90;9.35;;;;;;;-1.69;100.00;94235.91;2088893;28;20028;-83
2022/03/22 01:21:17;;;;;;;16.90;9.35;;;;;;;-1.65;100.00;94239.44;2097111;28;20102;-82
2022/03/22 01:22:18;;;;;;;17.67;9.80;;;;;;;-1.62;100.00;94233.59;2087706;28;20028;-81
2022/03/22 01:23:19;;;;;;;15.05;9.25;;;;;;;-1.45;100.00;94232.00;2097538;28;20051;-82
2022/03/22 01:24:20;;;;;;;16.50;10.40;;;;;;;-1.56;100.00;94229.72;2096861;28;20051;-81
2022/03/22 01:25:27;;;;;;;13.27;9.20;;;;;;;-1.62;100.00;94233.59;2089170;28;20067;-83
2022/03/22 01:26:28;;;;;;;12.93;9.13;;;;;;;-1.40;100.00;94224.75;2082837;28;20096;-82
2022/03/22 01:27:29;;;;;;;13.02;9.18;;;;;;;-1.50;100.00;94227.69;2089168;28;20416;-81
2022/03/22 01:28:30;;;;;;;16.95;9.98;;;;;;;-1.54;100.00;94226.78;2089317;28;20029;-82
2022/03/22 01:29:31;;;;;;;16.85;9.00;;;;;;;-1.39;100.00;94222.91;2076028;28;20030;-82
2022/03/22 01:30:34;;;;;;;23.25;9.82;;;;;;;-1.49;100.00;94220.59;2080718;28;20116;-83
2022/03/22 01:31:34;;;;;;;16.15;9.65;;;;;;;-1.48;100.00;94230.03;2081011;28;20845;-82
2022/03/22 01:32:36;;;;;;;17.73;9.85;;;;;;;-1.36;100.00;94220.44;2088196;28;20051;-83
2022/03/22 01:33:37;;;;;;;15.70;9.95;;;;;;;-1.45;100.00;94221.50;2097272;28;20600;-82
2022/03/22 01:34:37;;;;;;;12.45;9.13;;;;;;;-1.53;100.00;94223.09;2089307;28;20119;-82
2022/03/22 01:35:39;;;;;;;15.77;9.23;;;;;;;-1.38;100.00;94225.19;2085678;28;20029;-81
2022/03/22 01:36:40;;;;;;;14.20;10.18;;;;;;;-1.55;100.00;94223.38;2080530;28;20082;-82
2022/03/22 01:37:41;;;;;;;15.63;9.10;;;;;;;-1.57;100.00;94219.53;2080569;28;20828;-84
2022/03/22 01:38:42;;;;;;;16.27;10.00;;;;;;;-1.67;100.00;94222.47;2089013;28;20032;-82
2022/03/22 01:39:43;;;;;;;16.05;8.57;;;;;;;-1.74;100.00;94222.19;2089119;28;20025;-82
2022/03/22 01:40:44;;;;;;;13.13;9.63;;;;;;;-1.63;100.00;94218.16;2094890;28;20441;-82
2022/03/22 01:41:52;;;;;;;16.35;10.70;;;;;;;-1.80;100.00;94224.97;2088950;28;20021;-82
2022/03/22 01:42:54;;;;;;;16.60;10.35;;;;;;;-1.71;100.00;94216.31;2082679;28;20487;-83
2022/03/22 01:43:55;;;;;;;15.50;10.13;;;;;;;-1.57;100.00;94217.69;2080958;28;20025;-83
2022/03/22 01:44:56;;;;;;;16.63;9.98;;;;;;;-1.70;100.00;94221.25;2089187;28;20029;-83
2022/03/22 01:45:57;;;;;;;18.63;9.68;;;;;;;-1.82;100.00;94221.88;2088377;28;20385;-81
2022/03/22 01:47:01;;;;;;;14.88;9.70;;;;;;;-1.66;100.00;94224.03;2082719;28;20029;-83
2022/03/22 01:48:04;;;;;;;14.27;9.95;;;;;;;-1.86;100.00;94214.94;2090252;28;20107;-83
2022/03/22 01:49:06;;;;;;;20.58;9.82;;;;;;;-1.82;100.00;94221.13;2089408;28;20089;-83
2022/03/22 01:50:11;;;;;;;16.50;10.15;;;;;;;-1.95;100.00;94220.19;2081033;28;20986;-83
2022/03/22 01:51:12;;;;;;;14.73;10.35;;;;;;;-1.94;100.00;94210.47;2081671;28;20406;-82
2022/03/22 01:52:14;;;;;;;18.58;10.55;;;;;;;-1.67;100.00;94206.75;2080534;28;20087;-82
2022/03/22 01:53:16;;;;;;;16.55;9.52;;;;;;;-1.74;100.00;94215.09;2081254;28;20045;-81
2022/03/22 01:54:18;;;;;;;14.57;9.77;;;;;;;-1.66;100.00;94211.69;2091821;28;20122;-82
2022/03/22 01:55:19;;;;;;;14.60;9.70;;;;;;;-1.71;100.00;94211.88;2089091;28;20426;-82
2022/03/22 01:56:20;;;;;;;13.93;9.88;;;;;;;-1.69;100.00;94206.31;2080928;28;20644;-82
2022/03/22 01:57:23;;;;;;;13.82;9.70;;;;;;;-1.61;100.00;94202.91;2080640;28;20056;-81
2022/03/22 01:58:24;;;;;;;18.00;10.00;;;;;;;-1.79;100.00;94210.78;2081276;28;20446;-80
2022/03/22 01:59:25;;;;;;;17.45;9.90;;;;;;;-1.72;100.00;94202.44;2089140;28;20044;-81
2022/03/22 02:00:26;;;;;;;16.15;9.52;;;;;;;-1.68;100.00;94205.97;2088588;28;20482;-82
2022/03/22 02:05:51;;;;;;;18.52;9.43;;;;;;;-1.67;100.00;94197.03;2097811;28;20044;-81
2022/03/22 02:06:54;;;;;;;13.18;9.55;;;;;;;-1.72;100.00;94191.97;2099339;28;20028;-83
2022/03/22 02:07:59;;;;;;;17.55;9.32;;;;;;;-1.70;100.00;94197.69;2089195;28;20036;-81
2022/03/22 02:09:00;;;;;;;16.23;9.40;;;;;;;-1.69;100.00;94191.34;2089473;28;20048;-82
2022/03/22 02:10:01;;;;;;;12.57;9.57;;;;;;;-1.64;100.00;94193.03;2080908;28;20029;-82
2022/03/22 02:12:09;;;;;;;13.00;8.80;;;;;;;-1.83;100.00;94188.91;2125933;27;20180;-82
2022/03/22 02:13:11;;;;;;;17.05;9.65;;;;;;;-1.85;100.00;94191.06;2112490;28;20044;-83
2022/03/22 02:14:12;;;;;;;17.00;10.07;;;;;;;-1.69;100.00;94186.09;2102804;28;20020;-81
2022/03/22 02:15:13;;;;;;;15.35;9.48;;;;;;;-1.71;100.00;94190.09;2095761;28;20024;-82
2022/03/22 02:16:15;;;;;;;15.40;9.73;;;;;;;-1.73;100.00;94187.03;2095112;28;20032;-81
2022/03/22 02:17:15;;;;;;;12.13;9.05;;;;;;;-1.88;100.00;94183.06;2104634;28;20020;-83
2022/03/22 02:18:17;;;;;;;17.77;9.65;;;;;;;-1.96;100.00;94184.59;2104442;28;20247;-81
2022/03/22 02:19:18;;;;;;;14.20;9.70;;;;;;;-1.96;100.00;94186.47;2100843;28;20024;-81
2022/03/22 02:20:19;;;;;;;14.98;9.60;;;;;;;-1.84;100.00;94187.38;2098338;28;20029;-82
2022/03/22 02:21:23;;;;;;;19.83;10.60;;;;;;;-1.89;100.00;94179.69;2095632;28;20035;-82
2022/03/22 02:22:33;;;;;;;15.25;9.80;;;;;;;-1.86;100.00;94186.13;2096605;28;20028;-81
2022/03/22 02:23:49;;;;;;;13.18;9.63;;;;;;;-1.86;100.00;94180.88;2098426;28;20025;-81
2022/03/22 02:24:50;;;;;;;15.52;9.73;;;;;;;-1.86;100.00;94180.88;2105255;28;20554;-83
2022/03/22 02:25:51;;;;;;;13.98;9.77;;;;;;;-2.06;100.00;94185.69;2104254;28;20119;-81
2022/03/22 02:26:52;;;;;;;14.55;10.10;;;;;;;-2.17;100.00;94178.44;2095599;28;20102;-82
2022/03/22 02:27:53;;;;;;;13.13;9.15;;;;;;;-2.12;100.00;94184.28;2104432;28;20024;-82
2022/03/22 02:28:54;;;;;;;15.00;10.13;;;;;;;-1.97;100.00;94179.69;2100558;28;20385;-82
2022/03/22 02:29:56;;;;;;;13.45;9.30;;;;;;;-2.01;100.00;94187.38;2094042;28;20020;-82
2022/03/22 02:30:57;;;;;;;16.77;10.63;;;;;;;-2.06;100.00;94179.69;2097523;28;20470;-83
2022/03/22 02:31:58;;;;;;;15.00;9.85;;;;;;;-2.12;100.00;94180.91;2104018;28;20059;-82
2022/03/22 02:33:01;;;;;;;16.15;9.80;;;;;;;-1.97;100.00;94177.06;2104156;28;20094;-83
2022/03/22 02:34:03;;;;;;;15.05;9.82;;;;;;;-2.06;100.00;94184.94;2107889;28;20029;-82
2022/03/22 02:35:05;;;;;;;14.10;10.32;;;;;;;-1.98;100.00;94176.28;2109963;28;20016;-82
2022/03/22 02:36:06;;;;;;;19.17;10.20;;;;;;;-1.95;100.00;94188.75;2106111;28;20032;-81
2022/03/22 02:37:07;;;;;;;15.48;9.57;;;;;;;-2.03;100.00;94185.06;2101345;28;20111;-81
2022/03/22 02:38:08;;;;;;;14.05;10.40;;;;;;;-2.20;100.00;94184.28;2104358;28;20082;-83
2022/03/22 02:39:09;;;;;;;14.63;10.18;;;;;;;-2.29;100.00;94187.69;2095799;28;20469;-81
2022/03/22 02:40:13;;;;;;;15.52;9.82;;;;;;;-2.20;100.00;94185.06;2108780;28;20016;-81
2022/03/22 02:41:16;;;;;;;16.30;10.15;;;;;;;-2.05;100.00;94182.00;2120666;28;20027;-81
2022/03/22 02:42:17;;;;;;;16.35;9.68;;;;;;;-2.03;100.00;94184.28;2099654;28;20467;-83
2022/03/22 02:43:18;;;;;;;17.88;10.15;;;;;;;-2.07;100.00;94181.50;2092773;28;20025;-81
2022/03/22 02:44:19;;;;;;;14.75;10.05;;;;;;;-2.15;100.00;94181.53;2093894;28;20462;-81
2022/03/22 02:45:22;;;;;;;15.20;9.63;;;;;;;-2.25;100.00;94182.59;2097456;28;20046;-82
2022/03/22 02:46:23;;;;;;;15.82;9.30;;;;;;;-2.15;100.00;94179.69;2090797;28;20063;-82
2022/03/22 02:47:24;;;;;;;17.40;9.30;;;;;;;-2.15;100.00;94186.75;2091216;28;20124;-83
2022/03/22 02:48:26;;;;;;;12.75;10.02;;;;;;;-2.27;100.00;94179.53;2098680;28;20024;-81
2022/03/22 02:49:30;;;;;;;16.33;9.65;;;;;;;-2.25;100.00;94179.22;2100110;28;20500;-82
2022/03/22 02:50:31;;;;;;;14.73;9.63;;;;;;;-2.17;100.00;94184.47;2100915;28;21381;-83
2022/03/22 02:51:32;;;;;;;16.20;10.15;;;;;;;-2.12;100.00;94173.81;2099412;28;20021;-82
2022/03/22 02:52:33;;;;;;;12.35;9.88;;;;;;;-2.09;100.00;94172.44;2110151;28;20043;-82
2022/03/22 02:53:34;;;;;;;15.68;9.85;;;;;;;-2.06;100.00;94175.22;2110538;28;20023;-82
2022/03/22 02:54:35;;;;;;;13.25;9.20;;;;;;;-1.97;100.00;94177.84;2096725;28;20033;-83
2022/03/22 02:55:36;;;;;;;15.00;9.63;;;;;;;-2.00;100.00;94175.81;2097741;28;20028;-82
2022/03/22 02:56:37;;;;;;;16.10;9.88;;;;;;;-2.00;100.00;94177.69;2100096;28;20032;-82
2022/03/22 02:57:39;;;;;;;16.92;10.20;;;;;;;-2.00;100.00;94182.91;2098918;28;20017;-83
2022/03/22 02:58:40;;;;;;;13.52;9.60;;;;;;;-1.99;100.00;94179.22;2094059;28;20052;-82
2022/03/22 02:59:41;;;;;;;16.83;10.00;;;;;;;-2.15;100.00;94176.28;2091668;28;20024;-82
2022/03/22 03:00:42;;;;;;;15.45;10.27;;;;;;;-2.28;100.00;94178.78;2095490;28;20024;-82
2022/03/22 03:01:43;;;;;;;12.50;9.25;;;;;;;-2.26;100.00;94180.31;2100804;28;20095;-83
2022/03/22 03:02:47;;;;;;;15.63;9.18;;;;;;;-2.19;100.00;94172.75;2103600;28;20063;-81
2022/03/22 03:03:48;;;;;;;17.75;9.80;;;;;;;-2.20;100.00;94182.44;2101748;28;20028;-81
2022/03/22 03:04:50;;;;;;;14.55;9.32;;;;;;;-2.24;100.00;94181.53;2095580;28;20017;-81
2022/03/22 03:05:52;;;;;;;13.25;9.45;;;;;;;-2.36;100.00;94178.78;2092015;28;20033;-81
2022/03/22 03:06:52;;;;;;;13.48;9.60;;;;;;;-2.39;100.00;94177.53;2092777;28;20021;-84
2022/03/22 03:07:53;;;;;;;12.82;9.15;;;;;;;-2.29;100.00;94179.06;2102912;28;20065;-82
2022/03/22 03:09:00;;;;;;;13.90;10.10;;;;;;;-2.28;100.00;94191.09;2102914;28;20491;-83
2022/03/22 03:10:01;;;;;;;12.60;9.25;;;;;;;-2.31;100.00;94176.75;2104007;28;20024;-83
2022/03/22 03:11:02;;;;;;;15.45;10.55;;;;;;;-2.25;100.00;94187.84;2102695;28;20028;-83
2022/03/22 03:12:03;;;;;;;15.63;9.18;;;;;;;-2.18;100.00;94174.31;2103027;28;20092;-83
2022/03/22 03:13:05;;;;;;;11.93;9.00;;;;;;;-2.20;100.00;94187.69;2095662;28;20032;-83
2022/03/22 03:15:26;;;;;;;13.05;9.02;;;;;;;-2.14;100.00;94183.84;2108662;28;20451;-81
2022/03/22 03:16:27;;;;;;;13.57;10.07;;;;;;;-2.13;100.00;94177.53;2098898;28;20927;-81
2022/03/22 03:17:28;;;;;;;14.55;10.15;;;;;;;-2.22;100.00;94184.63;2095189;28;20036;-83
2022/03/22 03:18:29;;;;;;;15.32;9.35;;;;;;;-2.36;100.00;94174.31;2095590;28;20029;-82
2022/03/22 03:19:29;;;;;;;16.08;9.85;;;;;;;-2.32;100.00;94177.84;2093851;28;20025;-82
2022/03/22 03:20:30;;;;;;;12.73;9.38;;;;;;;-2.46;100.00;94176.44;2088667;28;20096;-81
2022/03/22 03:21:32;;;;;;;17.75;10.38;;;;;;;-2.50;100.00;94180.75;2087422;28;20052;-84
2022/03/22 03:22:34;;;;;;;13.73;9.68;;;;;;;-2.40;100.00;94183.84;2087372;28;20431;-81
2022/03/22 03:23:34;;;;;;;14.10;9.82;;;;;;;-2.50;100.00;94183.34;2093069;28;20413;-82
2022/03/22 03:24:35;;;;;;;15.77;10.10;;;;;;;-2.46;100.00;94176.44;2101463;28;20108;-81
2022/03/22 03:25:51;;;;;;;16.42;9.25;;;;;;;-2.29;100.00;94179.06;2083982;28;20022;-81
2022/03/22 03:26:52;;;;;;;14.13;9.15;;;;;;;-2.25;100.00;94181.84;2094361;28;20033;-83
2022/03/22 03:27:54;;;;;;;16.08;10.20;;;;;;;-2.32;100.00;94180.47;2096973;28;20028;-83
2022/03/22 03:28:55;;;;;;;14.00;9.07;;;;;;;-2.11;100.00;94180.63;2089936;28;20107;-81
2022/03/22 03:29:56;;;;;;;14.23;9.40;;;;;;;-2.11;100.00;94182.44;2090106;28;20025;-82
2022/03/22 03:30:56;;;;;;;12.93;9.35;;;;;;;-2.24;100.00;94186.00;2094049;28;20498;-82
2022/03/22 03:31:57;;;;;;;13.93;9.40;;;;;;;-2.25;100.00;94187.84;2093919;28;20082;-81
2022/03/22 03:32:58;;;;;;;16.00;9.82;;;;;;;-2.20;100.00;94186.91;2103109;28;20021;-82
2022/03/22 03:33:59;;;;;;;14.60;9.65;;;;;;;-2.34;100.00;94184.44;2093936;28;20060;-81
2022/03/22 03:35:01;;;;;;;12.95;9.20;;;;;;;-2.34;100.00;94184.44;2090045;28;20031;-82
2022/03/22 03:36:03;;;;;;;17.80;10.27;;;;;;;-2.53;100.00;94185.53;2097859;28;20028;-82
2022/03/22 03:37:05;;;;;;;18.13;10.15;;;;;;;-2.49;100.00;94185.69;2084814;28;21876;-81
2022/03/22 03:38:06;;;;;;;14.75;10.35;;;;;;;-2.55;100.00;94190.31;2087136;28;20025;-83
2022/03/22 03:39:07;;;;;;;13.13;9.43;;;;;;;-2.53;100.00;94192.59;2084980;28;20035;-81
2022/03/22 03:40:08;;;;;;;15.23;10.55;;;;;;;-2.47;100.00;94194.00;2089744;28;20025;-81
2022/03/22 03:42:30;;;;;;;15.43;9.57;;;;;;;-2.44;100.00;94203.09;2108821;28;20020;-83
2022/03/22 03:43:31;;;;;;;15.05;10.00;;;;;;;-2.44;100.00;94190.78;2106424;28;20389;-83
2022/03/22 03:47:16;;;;;;;15.68;9.20;;;;;;;-2.63;100.00;94192.91;2106507;28;20031;-82
2022/03/22 03:48:17;;;;;;;12.55;8.90;;;;;;;-2.65;100.00;94206.28;2092273;28;20021;-81
2022/03/22 03:49:18;;;;;;;16.67;9.68;;;;;;;-2.63;100.00;94200.75;2093347;28;20024;-81
2022/03/22 03:50:19;;;;;;;15.18;9.65;;;;;;;-2.72;100.00;94195.50;2098130;28;20024;-82
2022/03/22 03:51:20;;;;;;;15.38;9.43;;;;;;;-2.73;100.00;94212.25;2103349;28;20028;-82
2022/03/22 03:52:22;;;;;;;17.63;10.18;;;;;;;-2.72;100.00;94195.50;2098951;28;20124;-83
2022/03/22 03:53:23;;;;;;;13.65;9.38;;;;;;;-2.56;100.00;94198.44;2082157;28;20079;-83
2022/03/22 03:54:24;;;;;;;15.00;10.10;;;;;;;-2.41;100.00;94207.72;2094192;28;20043;-81
2022/03/22 03:55:25;;;;;;;13.13;8.90;;;;;;;-2.57;100.00;94200.28;2089527;28;20032;-83
2022/03/22 03:56:26;;;;;;;12.90;9.27;;;;;;;-2.62;100.00;94207.53;2097358;28;20023;-82
2022/03/22 03:57:28;;;;;;;13.32;8.98;;;;;;;-2.54;100.00;94207.53;2095939;28;20060;-83
2022/03/22 03:58:30;;;;;;;12.63;8.93;;;;;;;-2.60;100.00;94206.13;2089000;28;20429;-81
2022/03/22 03:59:31;;;;;;;13.35;8.63;;;;;;;-2.59;100.00;94207.69;2089922;28;20102;-82
2022/03/22 04:00:32;;;;;;;12.70;9.35;;;;;;;-2.61;100.00;94209.84;2087627;28;20032;-81
2022/03/22 04:01:33;;;;;;;15.00;9.68;;;;;;;-2.61;100.00;94206.44;2089703;28;20025;-81
2022/03/22 04:02:34;;;;;;;15.63;9.30;;;;;;;-2.59;100.00;94222.59;2098079;28;20082;-83
2022/03/22 04:03:35;;;;;;;16.45;9.60;;;;;;;-2.61;100.00;94216.91;2106491;28;20028;-81
2022/03/22 04:04:37;;;;;;;14.63;9.23;;;;;;;-2.64;100.00;94218.28;2095231;28;20131;-82
2022/03/22 04:05:38;;;;;;;18.08;10.63;;;;;;;-2.65;100.00;94216.75;2097963;28;20021;-82
2022/03/22 04:06:39;;;;;;;15.57;9.60;;;;;;;-2.71;100.00;94225.06;2090644;28;20047;-82
2022/03/22 04:07:50;;;;;;;16.63;10.52;;;;;;;-2.68;100.00;94219.19;2085582;28;20025;-81
2022/03/22 04:08:51;;;;;;;18.20;9.68;;;;;;;-2.72;100.00;94221.69;2092518;28;20117;-81
2022/03/22 04:09:54;;;;;;;14.93;10.10;;;;;;;-2.74;100.00;94213.34;2088239;28;20055;-83
2022/03/22 04:10:55;;;;;;;13.60;9.43;;;;;;;-2.72;100.00;94221.69;2090038;28;20021;-82
2022/03/22 04:11:56;;;;;;;18.70;10.18;;;;;;;-2.67;100.00;94224.16;2085109;28;20033;-84
2022/03/22 04:12:57;;;;;;;15.20;10.40;;;;;;;-2.73;100.00;94222.72;2097831;28;20109;-82
2022/03/22 04:13:58;;;;;;;14.60;10.85;;;;;;;-2.78;100.00;94220.25;2094502;28;20025;-82
2022/03/22 04:14:59;;;;;;;19.83;10.30;;;;;;;-2.73;100.00;94227.97;2092415;28;20116;-82
2022/03/22 04:15:59;;;;;;;18.48;10.52;;;;;;;-2.77;100.00;94219.19;2090624;28;20048;-83
2022/03/22 04:17:01;;;;;;;16.60;9.98;;;;;;;-2.77;100.00;94219.19;2097965;28;20388;-83
2022/03/22 04:18:02;;;;;;;17.27;10.75;;;;;;;-2.81;100.00;94224.28;2089606;28;20086;-83
2022/03/22 04:19:07;;;;;;;15.80;10.25;;;;;;;-2.68;100.00;94217.34;2097970;28;20020;-82
2022/03/22 04:20:09;;;;;;;16.42;10.80;;;;;;;-2.79;100.00;94226.56;2098410;28;20071;-83
2022/03/22 04:21:11;;;;;;;14.75;10.60;;;;;;;-2.65;100.00;94216.75;2084593;28;20497;-82
2022/03/22 04:22:13;;;;;;;14.20;10.45;;;;;;;-2.60;100.00;94218.44;2081657;28;20017;-83
2022/03/22 04:23:14;;;;;;;18.70;11.15;;;;;;;-2.64;100.00;94218.28;2089897;28;20029;-82
2022/03/22 04:24:15;;;;;;;18.73;10.20;;;;;;;-2.62;100.00;94212.75;2087189;28;20028;-82
2022/03/22 04:25:16;;;;;;;13.15;9.70;;;;;;;-2.67;100.00;94208.44;2105784;28;20016;-83
2022/03/22 04:26:17;;;;;;;15.25;10.25;;;;;;;-2.65;100.00;94218.59;2085379;28;20852;-83
2022/03/22 04:32:44;;;;;;;15.38;9.57;;;;;;;-2.56;100.00;94219.38;2107963;28;20062;-83
2022/03/22 04:33:45;;;;;;;13.95;9.32;;;;;;;-2.62;100.00;94218.75;2096761;28;20052;-82
2022/03/22 04:34:47;;;;;;;19.58;9.70;;;;;;;-2.75;100.00;94229.34;2088791;28;20047;-82
2022/03/22 04:35:48;;;;;;;14.88;9.82;;;;;;;-2.72;100.00;94215.66;2097245;28;20056;-83
2022/03/22 04:36:58;;;;;;;14.60;9.88;;;;;;;-2.50;100.00;94222.63;2097537;28;20082;-82
2022/03/22 04:37:58;;;;;;;18.25;9.52;;;;;;;-2.49;100.00;94222.34;2097130;28;20469;-82
2022/03/22 04:38:59;;;;;;;13.77;9.55;;;;;;;-2.65;100.00;94223.84;2088452;28;20025;-80
2022/03/22 04:40:00;;;;;;;15.30;9.30;;;;;;;-2.68;100.00;94222.59;2102435;28;20081;-82
2022/03/22 04:41:01;;;;;;;13.93;9.10;;;;;;;-2.56;100.00;94229.84;2083758;28;20021;-83
2022/03/22 04:42:04;;;;;;;14.57;9.15;;;;;;;-2.61;100.00;94225.53;2089538;28;20020;-81
2022/03/22 04:43:06;;;;;;;13.40;9.50;;;;;;;-2.44;100.00;94219.56;2110816;28;20078;-82
2022/03/22 04:44:08;;;;;;;15.63;10.23;;;;;;;-2.45;100.00;94219.88;2097269;28;20040;-83
2022/03/22 04:45:09;;;;;;;17.52;9.45;;;;;;;-2.51;100.00;94224.47;2093526;28;20394;-81
2022/03/22 04:46:10;;;;;;;13.90;9.02;;;;;;;-2.53;100.00;94221.41;2099341;28;20020;-82
2022/03/22 04:47:11;;;;;;;16.13;10.90;;;;;;;-2.71;100.00;94223.22;2089456;28;20025;-81
2022/03/22 04:48:13;;;;;;;16.10;10.23;;;;;;;-2.83;100.00;94233.47;2091355;28;20048;-82
2022/03/22 04:49:15;;;;;;;17.08;9.75;;;;;;;-2.82;100.00;94227.94;2097764;28;20388;-82
2022/03/22 04:50:18;;;;;;;16.38;9.38;;;;;;;-2.74;100.00;94228.28;2099601;28;20119;-81
2022/03/22 04:56:43;;;;;;;16.35;9.05;;;;;;;-2.91;100.00;94229.00;2102281;28;20032;-83
2022/03/22 04:57:44;;;;;;;13.85;8.00;;;;;;;-2.95;100.00;94226.19;2096382;28;20019;-83
2022/03/22 04:58:48;;;;;;;13.50;8.73;;;;;;;-2.93;100.00;94229.31;2087084;28;20024;-81
2022/03/22 04:59:49;;;;;;;12.95;8.40;;;;;;;-2.90;100.00;94233.13;2089749;28;20048;-83
2022/03/22 05:00:50;;;;;;;13.95;8.80;;;;;;;-3.02;100.00;94227.72;2089263;28;20115;-83
2022/03/22 05:01:51;;;;;;;13.45;8.70;;;;;;;-3.08;100.00;94232.31;2096341;28;20020;-82
2022/03/22 05:02:52;;;;;;;17.27;8.80;;;;;;;-3.09;100.00;94233.38;2094820;28;20027;-82
2022/03/22 05:03:53;;;;;;;14.23;9.13;;;;;;;-3.04;100.00;94235.88;2089193;28;20028;-81
2022/03/22 05:04:55;;;;;;;15.98;8.32;;;;;;;-2.98;100.00;94239.91;2093484;28;20024;-83
2022/03/22 05:07:15;;;;;;;16.50;8.52;;;;;;;-2.75;100.00;94237.22;2102693;28;20089;-83